createdAt,value
2022-12-12T00:00:37.956Z,74.04
2022-12-12T00:03:42.130Z,74.27
2022-12-12T00:06:44.997Z,74.89
2022-12-12T00:09:50.522Z,74.15
2022-12-12T00:12:53.251Z,74.12
2022-12-12T00:15:57.330Z,74.14
2022-12-12T00:19:01.374Z,74.46
2022-12-12T00:22:04.264Z,74.34
2022-12-12T00:25:10.645Z,74.83
2022-12-12T00:28:13.575Z,74.19
2022-12-12T00:31:18.688Z,74.47
2022-12-12T00:34:23.070Z,74.72
2022-12-12T00:37:26.255Z,74.76
2022-12-12T00:40:31.892Z,74.51
2022-12-12T00:43:35.219Z,75.75
2022-12-12T00:46:39.360Z,75.15
2022-12-12T00:49:43.379Z,76.03
2022-12-12T00:52:46.196Z,75.72
2022-12-12T00:55:59.197Z,75.03
2022-12-12T00:59:02.946Z,76.10
2022-12-12T01:02:07.157Z,75.82
2022-12-12T01:05:10.857Z,76.88
2022-12-12T01:08:15.481Z,76.25
2022-12-12T01:11:21.811Z,75.85
2022-12-12T01:14:24.600Z,75.79
2022-12-12T01:17:28.639Z,75.74
2022-12-12T01:20:32.664Z,75.53
2022-12-12T01:23:35.388Z,75.31
2022-12-12T01:26:40.892Z,76.48
2022-12-12T01:29:43.620Z,75.99
2022-12-12T01:32:47.806Z,76.33
2022-12-12T01:35:51.984Z,75.70
2022-12-12T01:38:57.299Z,76.09
2022-12-12T01:42:02.752Z,76.37
2022-12-12T01:45:06.242Z,75.92
2022-12-12T01:48:10.198Z,75.51
2022-12-12T01:51:20.940Z,75.77
2022-12-12T01:54:28.825Z,75.63
2022-12-12T01:57:38.898Z,75.69
2022-12-12T02:00:42.302Z,76.66
2022-12-12T02:03:47.036Z,76.42
2022-12-12T02:06:52.323Z,76.37
2022-12-12T02:09:56.360Z,75.86
2022-12-12T02:13:05.035Z,76.19
2022-12-12T02:16:17.117Z,77.25
2022-12-12T02:19:48.978Z,77.40
2022-12-12T02:23:16.600Z,76.69
2022-12-12T02:26:49.029Z,77.12
2022-12-12T02:30:15.473Z,76.91
2022-12-12T02:33:38.582Z,78.09
2022-12-12T02:36:54.865Z,76.42
2022-12-12T02:40:02.510Z,77.18
2022-12-12T02:43:15.349Z,77.58
2022-12-12T02:46:23.912Z,77.55
2022-12-12T02:49:34.008Z,76.76
2022-12-12T02:52:38.878Z,77.28
2022-12-12T02:55:41.988Z,77.10
2022-12-12T02:58:46.123Z,77.93
2022-12-12T03:06:03.692Z,77.66
2022-12-12T03:09:18.937Z,77.90
2022-12-12T03:12:30.333Z,77.02
2022-12-12T03:15:43.803Z,77.67
2022-12-12T03:18:59.188Z,76.76
2022-12-12T03:22:08.475Z,77.60
2022-12-12T03:25:22.658Z,77.11
2022-12-12T03:28:32.766Z,76.65
2022-12-12T03:31:41.541Z,77.57
2022-12-12T03:34:49.889Z,77.55
2022-12-12T03:37:58.588Z,78.08
2022-12-12T03:41:05.484Z,77.76
2022-12-12T03:44:14.739Z,76.85
2022-12-12T03:47:22.414Z,76.70
2022-12-12T03:50:29.855Z,77.41
2022-12-12T03:53:41.248Z,77.58
2022-12-12T03:56:49.922Z,77.82
2022-12-12T03:59:58.456Z,77.65
2022-12-12T04:03:12.256Z,77.59
2022-12-12T04:06:31.845Z,77.75
2022-12-12T04:09:53.453Z,77.97
2022-12-12T04:13:10.438Z,77.63
2022-12-12T04:16:15.155Z,77.10
2022-12-12T04:19:40.587Z,77.62
2022-12-12T04:23:07.845Z,77.54
2022-12-12T04:26:35.704Z,77.51
2022-12-12T04:29:47.356Z,77.96
2022-12-12T04:32:53.759Z,76.85
2022-12-12T04:36:00.694Z,78.08
2022-12-12T04:39:07.959Z,78.17
2022-12-12T04:42:16.295Z,77.50
2022-12-12T04:45:24.931Z,78.12
2022-12-12T04:48:37.016Z,77.63
2022-12-12T04:51:45.881Z,76.24
2022-12-12T04:55:00.027Z,77.51
2022-12-12T04:58:06.518Z,78.03
2022-12-12T05:01:15.318Z,76.51
2022-12-12T05:04:24.445Z,76.93
2022-12-12T05:07:39.800Z,75.77
2022-12-12T05:10:46.338Z,76.27
2022-12-12T05:13:51.187Z,74.98
2022-12-12T05:20:20.990Z,76.20
2022-12-12T05:23:27.899Z,75.61
2022-12-12T05:26:35.878Z,75.66
2022-12-12T05:29:41.288Z,74.37
2022-12-12T05:32:45.578Z,75.75
2022-12-12T05:35:48.307Z,74.49
2022-12-12T05:38:52.464Z,75.00
2022-12-12T05:41:55.162Z,75.48
2022-12-12T05:45:00.574Z,75.68
2022-12-12T05:48:04.691Z,75.90
2022-12-12T05:51:07.410Z,73.99
2022-12-12T05:54:11.484Z,75.07
2022-12-12T05:57:14.191Z,74.79
2022-12-12T06:03:42.666Z,75.61
2022-12-12T06:06:45.366Z,75.35
2022-12-12T06:09:49.674Z,75.75
2022-12-12T06:12:52.509Z,75.35
2022-12-12T06:15:58.015Z,75.53
2022-12-12T06:22:24.977Z,75.61
2022-12-12T06:28:51.106Z,75.08
2022-12-12T06:31:55.586Z,75.64
2022-12-12T06:34:59.657Z,75.01
2022-12-12T06:38:02.405Z,75.17
2022-12-12T06:41:09.631Z,75.19
2022-12-12T06:44:13.759Z,75.09
2022-12-12T06:47:17.917Z,75.04
2022-12-12T06:50:23.866Z,75.47
2022-12-12T06:53:28.170Z,74.94
2022-12-12T06:56:31.449Z,74.83
2022-12-12T06:59:35.434Z,75.03
2022-12-12T07:02:39.520Z,75.22
2022-12-12T07:05:43.645Z,75.17
2022-12-12T07:08:46.602Z,75.08
2022-12-12T07:11:50.582Z,74.37
2022-12-12T07:14:54.980Z,75.02
2022-12-12T07:17:59.166Z,74.03
2022-12-12T07:21:06.472Z,75.27
2022-12-12T07:24:09.418Z,74.39
2022-12-12T07:27:17.048Z,74.53
2022-12-12T07:33:47.603Z,74.10
2022-12-12T07:36:51.583Z,74.11
2022-12-12T07:39:55.546Z,74.28
2022-12-12T07:42:58.332Z,73.59
2022-12-12T07:46:02.429Z,74.01
2022-12-12T07:49:06.563Z,74.27
2022-12-12T07:52:10.796Z,73.83
2022-12-12T07:55:15.244Z,74.05
2022-12-12T07:58:18.545Z,73.76
2022-12-12T08:01:24.943Z,74.86
2022-12-12T08:04:29.084Z,73.72
2022-12-12T08:07:33.085Z,74.43
2022-12-12T08:10:37.515Z,73.43
2022-12-12T08:13:41.234Z,72.15
2022-12-12T08:16:45.258Z,72.32
2022-12-12T08:19:49.575Z,72.16
2022-12-12T08:22:53.739Z,71.99
2022-12-12T08:25:56.522Z,71.39
2022-12-12T08:29:01.652Z,71.54
2022-12-12T08:35:30.395Z,71.67
2022-12-12T08:38:34.483Z,70.77
2022-12-12T08:41:40.775Z,71.16
2022-12-12T08:44:43.611Z,70.56
2022-12-12T08:47:47.580Z,70.95
2022-12-12T08:50:53.255Z,69.45
2022-12-12T08:53:57.413Z,70.53
2022-12-12T08:57:01.392Z,69.26
2022-12-12T09:00:05.326Z,71.14
2022-12-12T09:03:09.944Z,70.28
2022-12-12T09:06:15.633Z,69.02
2022-12-12T09:09:18.351Z,70.18
2022-12-12T09:12:22.346Z,69.81
2022-12-12T09:15:25.111Z,69.81
2022-12-12T09:18:29.328Z,70.69
2022-12-12T09:21:33.422Z,69.44
2022-12-12T09:24:38.000Z,69.23
2022-12-12T09:27:42.064Z,68.61
2022-12-12T09:30:45.924Z,67.62
2022-12-12T09:33:50.077Z,68.27
2022-12-12T09:36:54.284Z,68.27
2022-12-12T09:39:58.597Z,69.29
2022-12-12T09:43:01.727Z,68.08
2022-12-12T09:49:44.225Z,65.81
2022-12-12T09:52:50.043Z,66.13
2022-12-12T09:56:00.292Z,67.43
2022-12-12T09:59:11.284Z,66.71
2022-12-12T10:02:34.221Z,65.42
2022-12-12T10:05:44.402Z,65.50
2022-12-12T10:08:59.932Z,64.55
2022-12-12T10:12:08.596Z,64.79
2022-12-12T10:15:27.838Z,65.02
2022-12-12T10:18:35.309Z,64.50
2022-12-12T10:21:42.934Z,65.62
2022-12-12T10:28:17.032Z,65.12
2022-12-12T10:38:46.430Z,64.35
2022-12-12T10:41:58.805Z,62.68
2022-12-12T10:45:30.897Z,61.64
2022-12-12T10:55:22.545Z,61.30
2022-12-12T10:58:29.113Z,61.79
2022-12-12T11:02:07.655Z,59.69
2022-12-12T11:05:04.131Z,60.10
2022-12-12T11:08:20.108Z,60.16
2022-12-12T11:11:25.155Z,59.74
2022-12-12T11:14:36.320Z,59.25
2022-12-12T11:17:40.940Z,58.73
2022-12-12T11:20:50.307Z,57.69
2022-12-12T11:23:58.641Z,59.57
2022-12-12T11:27:03.862Z,58.47
2022-12-12T11:30:24.102Z,60.90
2022-12-12T11:33:35.507Z,59.82
2022-12-12T11:36:41.787Z,61.93
2022-12-12T11:39:48.412Z,61.00
2022-12-12T11:42:51.469Z,61.09
2022-12-12T11:46:07.087Z,62.16
2022-12-12T11:49:21.549Z,62.45
2022-12-12T11:52:27.305Z,63.10
2022-12-12T11:55:47.423Z,61.80
2022-12-12T11:58:56.260Z,62.17
2022-12-12T12:05:53.567Z,63.45
2022-12-12T12:09:12.119Z,62.90
2022-12-12T12:12:23.150Z,60.64
2022-12-12T12:15:36.957Z,61.95
2022-12-12T12:18:58.895Z,61.93
2022-12-12T12:22:17.553Z,59.94
2022-12-12T12:25:31.582Z,61.57
2022-12-12T12:29:04.460Z,61.45
2022-12-12T12:32:16.129Z,61.62
2022-12-12T12:35:30.340Z,61.11
2022-12-12T12:38:58.812Z,61.95
2022-12-12T12:42:18.547Z,61.26
2022-12-12T12:45:35.156Z,62.12
2022-12-12T12:48:42.952Z,61.89
2022-12-12T12:51:52.778Z,62.21
2022-12-12T12:55:00.392Z,61.25
2022-12-12T12:58:08.480Z,61.93
2022-12-12T13:01:15.200Z,63.07
2022-12-12T13:04:24.629Z,63.09
2022-12-12T13:07:40.877Z,62.84
2022-12-12T13:10:48.596Z,63.42
2022-12-12T13:13:55.528Z,61.31
2022-12-12T13:17:06.595Z,62.97
2022-12-12T13:20:18.009Z,62.98
2022-12-12T13:23:40.100Z,62.71
2022-12-12T13:26:50.192Z,64.44
2022-12-12T13:37:00.869Z,63.61
2022-12-12T13:40:09.064Z,63.12
2022-12-12T13:43:30.557Z,63.19
2022-12-12T13:46:42.383Z,63.16
2022-12-12T13:49:53.749Z,64.32
2022-12-12T13:53:18.951Z,64.52
2022-12-12T13:56:36.195Z,66.20
2022-12-12T14:00:25.166Z,65.72
2022-12-12T14:03:31.348Z,65.52
2022-12-12T14:06:35.457Z,65.98
2022-12-12T14:09:48.110Z,65.73
2022-12-12T14:12:54.557Z,65.36
2022-12-12T14:16:04.643Z,66.53
2022-12-12T14:19:11.402Z,66.94
2022-12-12T14:22:29.449Z,66.50
2022-12-12T14:25:34.752Z,67.10
2022-12-12T14:28:40.205Z,66.73
2022-12-12T14:31:51.360Z,66.17
2022-12-12T14:35:10.485Z,66.42
2022-12-12T14:38:28.081Z,67.27
2022-12-12T14:41:36.071Z,66.79
2022-12-12T14:44:50.669Z,66.94
2022-12-12T14:48:17.248Z,66.75
2022-12-12T14:51:29.307Z,66.38
2022-12-12T14:54:34.277Z,66.49
2022-12-12T14:57:38.422Z,66.62
2022-12-12T15:00:50.584Z,67.08
2022-12-12T15:03:53.491Z,66.88
2022-12-12T15:06:58.072Z,66.81
2022-12-12T15:10:02.552Z,66.45
2022-12-12T15:13:17.081Z,67.34
2022-12-12T15:16:28.075Z,67.27
2022-12-12T15:19:35.270Z,66.54
2022-12-12T15:22:41.542Z,67.42
2022-12-12T15:25:50.563Z,67.79
2022-12-12T15:28:53.424Z,67.35
2022-12-12T15:32:05.181Z,67.02
2022-12-12T15:35:17.796Z,66.88
2022-12-12T15:38:22.447Z,67.51
2022-12-12T15:41:25.363Z,67.28
2022-12-12T15:44:29.592Z,66.57
2022-12-12T15:47:35.330Z,67.74
2022-12-12T15:50:53.246Z,68.54
2022-12-12T15:53:57.544Z,68.22
2022-12-12T15:57:01.639Z,68.29
2022-12-12T16:00:09.717Z,68.12
2022-12-12T16:03:25.284Z,66.97
2022-12-12T16:06:33.252Z,68.00
2022-12-12T16:09:37.471Z,67.67
2022-12-12T16:16:41.131Z,67.97
2022-12-12T16:19:49.527Z,67.93
2022-12-12T16:22:53.638Z,69.06
2022-12-12T16:25:56.887Z,68.03
2022-12-12T16:29:01.306Z,68.83
2022-12-12T16:32:04.053Z,68.34
2022-12-12T16:35:11.362Z,68.13
2022-12-12T16:38:15.388Z,68.17
2022-12-12T16:41:20.932Z,69.57
2022-12-12T16:44:24.976Z,68.50
2022-12-12T16:47:27.986Z,67.76
2022-12-12T16:53:53.715Z,67.72
2022-12-12T16:56:57.742Z,67.15
2022-12-12T17:00:01.749Z,68.17
2022-12-12T17:03:04.735Z,68.84
2022-12-12T17:06:11.224Z,66.87
2022-12-12T17:09:14.528Z,66.91
2022-12-12T17:12:18.560Z,66.58
2022-12-12T17:15:24.504Z,67.95
2022-12-12T17:18:27.277Z,66.38
2022-12-12T17:21:32.677Z,67.13
2022-12-12T17:24:35.746Z,66.53
2022-12-12T17:27:39.918Z,64.44
2022-12-12T17:30:43.145Z,65.07
2022-12-12T17:33:51.063Z,64.56
2022-12-12T17:36:56.750Z,64.00
2022-12-12T17:39:59.579Z,65.00
2022-12-12T17:43:05.188Z,65.89
2022-12-12T17:46:15.206Z,66.52
2022-12-12T17:49:18.129Z,66.96
2022-12-12T17:52:23.853Z,67.04
2022-12-12T17:55:53.899Z,66.12
2022-12-12T17:58:51.739Z,66.13
2022-12-12T18:01:55.899Z,65.86
2022-12-12T18:04:58.706Z,65.22
2022-12-12T18:08:04.389Z,65.46
2022-12-12T18:11:08.818Z,64.87
2022-12-12T18:14:16.625Z,64.73
2022-12-12T18:17:20.879Z,66.22
2022-12-12T18:20:28.036Z,66.10
2022-12-12T18:23:37.008Z,65.98
2022-12-12T18:26:41.542Z,65.83
2022-12-12T18:29:44.455Z,66.30
2022-12-12T18:32:48.594Z,65.27
2022-12-12T18:35:51.810Z,65.29
2022-12-12T18:38:58.096Z,65.35
2022-12-12T18:42:00.843Z,65.18
2022-12-12T18:45:05.552Z,65.08
2022-12-12T18:48:09.530Z,64.44
2022-12-12T18:51:15.291Z,65.54
2022-12-12T18:57:42.502Z,66.17
2022-12-12T19:00:46.020Z,67.16
2022-12-12T19:03:52.061Z,67.04
2022-12-12T19:06:55.203Z,67.12
2022-12-12T19:10:00.569Z,67.26
2022-12-12T19:13:03.655Z,67.60
2022-12-12T19:16:09.255Z,67.27
2022-12-12T19:19:14.417Z,67.75
2022-12-12T19:22:43.752Z,68.13
2022-12-12T19:25:43.413Z,68.06
2022-12-12T19:28:48.930Z,68.81
2022-12-12T19:31:58.390Z,68.47
2022-12-12T19:38:24.935Z,69.14
2022-12-12T19:41:29.975Z,68.67
2022-12-12T19:44:38.639Z,68.52
2022-12-12T19:47:44.509Z,68.17
2022-12-12T19:50:48.873Z,68.83
2022-12-12T19:53:55.986Z,68.12
2022-12-12T19:57:00.469Z,68.70
2022-12-12T20:00:05.128Z,68.64
2022-12-12T20:03:07.980Z,67.95
2022-12-12T20:06:14.122Z,69.04
2022-12-12T20:09:19.352Z,68.43
2022-12-12T20:15:46.639Z,68.97
2022-12-12T20:18:50.305Z,69.46
2022-12-12T20:22:03.087Z,70.39
2022-12-12T20:28:30.438Z,69.67
2022-12-12T20:31:36.737Z,70.76
2022-12-12T20:34:39.498Z,70.03
2022-12-12T20:37:43.498Z,70.39
2022-12-12T20:40:46.249Z,70.20
2022-12-12T20:43:52.059Z,70.81
2022-12-12T20:46:55.032Z,70.42
2022-12-12T20:49:59.102Z,71.13
2022-12-12T20:53:01.848Z,71.35
2022-12-12T20:56:10.685Z,71.11
2022-12-12T20:59:15.359Z,71.48
2022-12-12T21:02:19.403Z,72.22
2022-12-12T21:05:22.166Z,71.24
2022-12-12T21:08:26.154Z,71.20
2022-12-12T21:11:30.656Z,70.60
2022-12-12T21:14:36.914Z,70.22
2022-12-12T21:17:40.894Z,68.97
2022-12-12T21:20:45.865Z,69.27
2022-12-12T21:23:50.529Z,69.75
2022-12-12T21:26:54.560Z,67.84
2022-12-12T21:29:58.833Z,67.29
2022-12-12T21:33:02.859Z,65.82
2022-12-12T21:36:07.524Z,66.73
2022-12-12T21:39:10.226Z,65.82
2022-12-12T21:42:14.388Z,65.51
2022-12-12T21:45:18.489Z,66.45
2022-12-12T21:48:22.510Z,66.11
2022-12-12T21:51:26.517Z,66.18
2022-12-12T21:54:30.775Z,66.11
2022-12-12T21:57:34.768Z,66.13
2022-12-12T22:00:40.256Z,65.40
2022-12-12T22:03:44.469Z,65.52
2022-12-12T22:06:47.391Z,64.54
2022-12-12T22:09:59.034Z,64.66
2022-12-12T22:13:15.272Z,64.59
2022-12-12T22:16:21.005Z,65.87
2022-12-12T22:19:25.032Z,65.42
2022-12-12T22:22:30.242Z,65.49
2022-12-12T22:25:32.982Z,65.82
2022-12-12T22:28:36.947Z,65.40
2022-12-12T22:31:42.649Z,65.51
2022-12-12T22:34:46.741Z,66.04
2022-12-12T22:41:11.392Z,65.90
2022-12-12T22:44:17.997Z,66.44
2022-12-12T22:47:23.757Z,66.72
2022-12-12T22:50:27.745Z,66.50
2022-12-12T22:53:31.692Z,66.55
2022-12-12T22:56:36.208Z,65.41
2022-12-12T22:59:40.240Z,66.23
2022-12-12T23:02:44.408Z,66.92
2022-12-12T23:05:48.450Z,65.89
2022-12-12T23:08:54.414Z,66.45
2022-12-12T23:11:57.221Z,66.52
2022-12-12T23:15:01.222Z,66.48
2022-12-12T23:18:05.458Z,66.50
2022-12-12T23:21:16.671Z,66.21
2022-12-12T23:24:20.359Z,67.13
2022-12-12T23:27:24.123Z,66.36
2022-12-12T23:30:28.258Z,65.66
2022-12-12T23:33:32.497Z,66.02
2022-12-12T23:36:36.734Z,66.09
2022-12-12T23:39:40.715Z,66.09
2022-12-12T23:42:43.474Z,66.85
2022-12-12T23:45:47.375Z,66.68
2022-12-12T23:48:52.481Z,67.26
2022-12-12T23:51:57.115Z,66.41
2022-12-12T23:55:00.904Z,66.63
2022-12-12T23:58:03.656Z,66.98
